createdAt,value
2022-12-14T00:00:35.379Z,11.30
2022-12-14T00:03:04.071Z,11.67
2022-12-14T00:05:34.659Z,13.40
2022-12-14T00:08:03.255Z,11.47
2022-12-14T00:10:32.644Z,10.30
2022-12-14T00:13:01.636Z,10.40
2022-12-14T00:15:30.469Z,9.57
2022-12-14T00:17:59.254Z,11.87
2022-12-14T00:20:28.628Z,9.33
2022-12-14T00:22:58.913Z,9.70
2022-12-14T00:25:27.687Z,9.40
2022-12-14T00:27:56.215Z,10.20
2022-12-14T00:30:24.756Z,13.47
2022-12-14T00:32:53.292Z,14.17
2022-12-14T00:35:21.793Z,11.10
2022-12-14T00:37:50.361Z,12.03
2022-12-14T00:40:20.305Z,11.63
2022-12-14T00:42:48.820Z,10.87
2022-12-14T00:45:17.675Z,9.93
2022-12-14T00:47:46.186Z,11.93
2022-12-14T00:50:14.705Z,10.27
2022-12-14T00:52:43.216Z,10.47
2022-12-14T00:55:11.935Z,10.30
2022-12-14T00:57:41.868Z,9.70
2022-12-14T01:00:11.715Z,10.43
2022-12-14T01:02:40.280Z,11.10
2022-12-14T01:05:09.552Z,9.30
2022-12-14T01:07:38.070Z,9.60
2022-12-14T01:10:07.257Z,12.53
2022-12-14T01:12:35.858Z,10.87
2022-12-14T01:15:06.675Z,13.07
2022-12-14T01:17:35.239Z,10.90
2022-12-14T01:20:04.450Z,11.80
2022-12-14T01:22:33.038Z,10.23
2022-12-14T01:25:01.518Z,11.83
2022-12-14T01:27:30.048Z,10.80
2022-12-14T01:29:58.542Z,10.43
2022-12-14T01:32:28.706Z,9.07
2022-12-14T01:34:57.184Z,9.13
2022-12-14T01:37:25.681Z,9.47
2022-12-14T01:39:54.221Z,8.97
2022-12-14T01:42:22.885Z,9.77
2022-12-14T01:44:54.642Z,9.03
2022-12-14T01:47:29.599Z,9.37
2022-12-14T01:50:03.018Z,8.90
2022-12-14T01:52:38.243Z,9.07
2022-12-14T01:55:09.276Z,8.87
2022-12-14T01:57:40.598Z,8.77
2022-12-14T02:00:13.185Z,8.90
2022-12-14T02:02:49.580Z,8.50
2022-12-14T02:05:18.609Z,9.50
2022-12-14T02:07:48.837Z,12.20
2022-12-14T02:10:18.287Z,10.43
2022-12-14T02:12:49.364Z,9.50
2022-12-14T02:15:18.242Z,9.10
2022-12-14T02:17:48.788Z,9.07
2022-12-14T02:20:18.450Z,10.73
2022-12-14T02:23:34.626Z,9.57
2022-12-14T02:26:44.606Z,9.13
2022-12-14T02:29:26.232Z,10.93
2022-12-14T02:32:02.147Z,9.93
2022-12-14T02:34:37.975Z,11.00
2022-12-14T02:37:11.143Z,10.20
2022-12-14T02:39:45.903Z,10.83
2022-12-14T02:42:15.671Z,9.23
2022-12-14T02:44:51.523Z,9.43
2022-12-14T02:47:25.725Z,10.30
2022-12-14T02:50:01.563Z,12.17
2022-12-14T02:52:40.134Z,10.47
2022-12-14T02:55:13.496Z,9.60
2022-12-14T02:57:46.326Z,9.57
2022-12-14T03:00:17.102Z,10.77
2022-12-14T03:02:46.236Z,9.97
2022-12-14T03:05:15.074Z,11.43
2022-12-14T03:07:48.854Z,8.97
2022-12-14T03:10:22.782Z,10.87
2022-12-14T03:12:57.462Z,11.23
2022-12-14T03:15:28.611Z,9.97
2022-12-14T03:18:00.990Z,9.07
2022-12-14T03:20:31.796Z,9.53
2022-12-14T03:23:04.737Z,11.70
2022-12-14T03:25:37.272Z,10.07
2022-12-14T03:28:08.040Z,10.30
2022-12-14T03:30:59.486Z,11.40
2022-12-14T03:33:29.904Z,9.90
2022-12-14T03:36:01.294Z,18.47
2022-12-14T03:38:34.560Z,17.13
2022-12-14T03:41:13.617Z,12.20
2022-12-14T03:43:51.213Z,12.13
2022-12-14T03:46:29.287Z,11.70
2022-12-14T03:49:01.714Z,12.77
2022-12-14T03:51:35.477Z,11.87
2022-12-14T03:54:07.977Z,9.93
2022-12-14T03:56:39.186Z,11.57
2022-12-14T03:59:11.525Z,17.07
2022-12-14T04:01:44.291Z,15.67
2022-12-14T04:04:16.137Z,13.03
2022-12-14T04:06:49.983Z,11.67
2022-12-14T04:09:27.061Z,11.13
2022-12-14T04:12:17.360Z,12.37
2022-12-14T04:15:05.884Z,10.47
2022-12-14T04:17:55.546Z,11.67
2022-12-14T04:20:27.918Z,11.03
2022-12-14T04:23:00.349Z,11.43
2022-12-14T04:25:49.111Z,11.10
2022-12-14T04:28:38.213Z,12.70
2022-12-14T04:31:10.362Z,13.17
2022-12-14T04:33:47.813Z,10.67
2022-12-14T04:36:18.699Z,12.13
2022-12-14T04:38:49.071Z,11.27
2022-12-14T04:41:21.811Z,11.90
2022-12-14T04:43:52.751Z,11.07
2022-12-14T04:46:24.227Z,11.43
2022-12-14T04:48:56.951Z,11.73
2022-12-14T04:51:27.898Z,12.37
2022-12-14T04:54:00.031Z,11.20
2022-12-14T04:56:32.857Z,10.27
2022-12-14T04:59:01.534Z,11.57
2022-12-14T05:01:39.747Z,11.70
2022-12-14T05:04:16.557Z,13.17
2022-12-14T05:06:51.586Z,13.33
2022-12-14T05:09:24.118Z,15.10
2022-12-14T05:11:55.343Z,16.00
2022-12-14T05:14:28.270Z,16.07
2022-12-14T05:16:57.230Z,12.97
2022-12-14T05:19:27.165Z,12.10
2022-12-14T05:21:56.218Z,10.10
2022-12-14T05:24:24.783Z,12.47
2022-12-14T05:26:53.314Z,11.97
2022-12-14T05:29:21.836Z,12.90
2022-12-14T05:31:51.278Z,12.33
2022-12-14T05:34:20.346Z,16.23
2022-12-14T05:36:50.303Z,16.60
2022-12-14T05:39:18.814Z,16.20
2022-12-14T05:41:47.311Z,13.37
2022-12-14T05:44:15.846Z,11.53
2022-12-14T05:46:44.386Z,11.77
2022-12-14T05:49:13.007Z,11.37
2022-12-14T05:51:42.386Z,10.10
2022-12-14T05:54:12.350Z,11.30
2022-12-14T05:56:40.902Z,13.53
2022-12-14T05:59:09.491Z,12.27
2022-12-14T06:01:38.099Z,12.00
2022-12-14T06:04:06.753Z,10.83
2022-12-14T06:06:35.545Z,10.97
2022-12-14T06:09:07.248Z,12.07
2022-12-14T06:11:39.175Z,12.23
2022-12-14T06:14:08.036Z,11.83
2022-12-14T06:16:37.178Z,11.23
2022-12-14T06:19:06.417Z,11.90
2022-12-14T06:21:38.143Z,11.27
2022-12-14T06:24:07.746Z,14.53
2022-12-14T06:26:40.857Z,20.27
2022-12-14T06:29:12.890Z,17.00
2022-12-14T06:31:41.518Z,13.50
2022-12-14T06:34:10.928Z,13.27
2022-12-14T06:36:41.192Z,13.23
2022-12-14T06:39:13.186Z,11.57
2022-12-14T06:41:43.248Z,12.50
2022-12-14T06:44:14.185Z,10.97
2022-12-14T06:46:43.570Z,10.60
2022-12-14T06:49:15.028Z,22.03
2022-12-14T06:51:43.836Z,22.80
2022-12-14T06:54:13.720Z,20.43
2022-12-14T06:56:45.048Z,14.47
2022-12-14T06:59:14.128Z,15.40
2022-12-14T07:01:42.896Z,14.40
2022-12-14T07:04:11.564Z,13.53
2022-12-14T07:06:41.651Z,14.93
2022-12-14T07:09:13.693Z,14.00
2022-12-14T07:11:43.661Z,16.60
2022-12-14T07:14:15.613Z,15.43
2022-12-14T07:16:48.252Z,15.23
2022-12-14T07:19:18.205Z,17.50
2022-12-14T07:21:46.784Z,15.83
2022-12-14T07:24:17.081Z,19.30
2022-12-14T07:26:46.942Z,18.73
2022-12-14T07:29:16.887Z,19.67
2022-12-14T07:31:49.480Z,24.77
2022-12-14T07:34:21.363Z,22.13
2022-12-14T07:36:51.585Z,19.03
2022-12-14T07:39:21.031Z,18.53
2022-12-14T07:41:52.235Z,17.97
2022-12-14T07:44:20.731Z,16.93
2022-12-14T07:46:49.287Z,18.50
2022-12-14T07:49:17.798Z,20.40
2022-12-14T07:51:46.664Z,18.23
2022-12-14T07:54:15.346Z,16.17
2022-12-14T07:56:45.187Z,18.57
2022-12-14T07:59:17.014Z,16.00
2022-12-14T08:01:46.147Z,21.20
2022-12-14T08:04:16.697Z,20.63
2022-12-14T08:06:46.930Z,21.80
2022-12-14T08:09:16.811Z,18.57
2022-12-14T08:11:45.570Z,18.27
2022-12-14T08:14:17.250Z,18.27
2022-12-14T08:16:46.176Z,19.57
2022-12-14T08:19:14.965Z,17.10
2022-12-14T08:21:43.554Z,19.03
2022-12-14T08:24:12.509Z,18.47
2022-12-14T08:26:41.066Z,17.40
2022-12-14T08:29:12.311Z,17.90
2022-12-14T08:31:42.664Z,19.70
2022-12-14T08:34:11.275Z,22.67
2022-12-14T08:36:39.864Z,19.30
2022-12-14T08:39:10.730Z,23.27
2022-12-14T08:41:39.274Z,20.77
2022-12-14T08:44:09.898Z,19.87
2022-12-14T08:46:39.286Z,21.30
2022-12-14T08:49:09.296Z,22.27
2022-12-14T08:51:39.042Z,21.23
2022-12-14T08:54:07.614Z,22.40
2022-12-14T08:56:36.221Z,24.63
2022-12-14T08:59:04.823Z,20.47
2022-12-14T09:01:34.824Z,20.83
2022-12-14T09:04:07.728Z,20.63
2022-12-14T09:06:39.225Z,19.57
2022-12-14T09:09:15.614Z,20.43
2022-12-14T09:11:45.185Z,18.67
2022-12-14T09:14:13.864Z,22.53
2022-12-14T09:16:42.604Z,21.37
2022-12-14T09:19:11.272Z,20.27
2022-12-14T09:21:41.264Z,19.53
2022-12-14T09:24:10.891Z,22.40
2022-12-14T09:26:39.430Z,19.60
2022-12-14T09:29:08.025Z,21.03
2022-12-14T09:31:36.579Z,19.13
2022-12-14T09:34:05.183Z,19.60
2022-12-14T09:36:34.788Z,16.87
2022-12-14T09:39:05.392Z,16.97
2022-12-14T09:41:57.735Z,17.63
2022-12-14T09:44:38.443Z,16.73
2022-12-14T09:47:13.346Z,16.43
2022-12-14T09:49:46.435Z,17.90
2022-12-14T09:52:17.918Z,20.20
2022-12-14T09:54:49.711Z,19.03
2022-12-14T09:57:26.018Z,16.83
2022-12-14T09:59:55.078Z,17.40
2022-12-14T10:02:36.472Z,18.33
2022-12-14T10:05:25.981Z,19.47
2022-12-14T10:08:02.764Z,19.20
2022-12-14T10:10:39.072Z,17.90
2022-12-14T10:13:16.363Z,17.43
2022-12-14T10:15:53.621Z,19.50
2022-12-14T10:19:02.608Z,18.60
2022-12-14T10:21:40.559Z,19.40
2022-12-14T10:24:14.976Z,20.33
2022-12-14T10:26:49.099Z,17.23
2022-12-14T10:29:23.094Z,18.23
2022-12-14T10:31:58.713Z,19.53
2022-12-14T10:34:30.564Z,17.90
2022-12-14T10:37:08.507Z,18.37
2022-12-14T10:39:49.323Z,19.47
2022-12-14T10:42:26.526Z,18.47
2022-12-14T10:45:31.653Z,17.70
2022-12-14T10:47:53.332Z,17.30
2022-12-14T10:50:25.802Z,17.43
2022-12-14T10:52:55.123Z,19.27
2022-12-14T10:55:27.339Z,16.83
2022-12-14T10:57:57.254Z,17.73
2022-12-14T11:00:25.945Z,18.53
2022-12-14T11:02:57.555Z,20.13
2022-12-14T11:05:36.981Z,19.57
2022-12-14T11:08:07.977Z,16.83
2022-12-14T11:10:39.441Z,16.60
2022-12-14T11:13:18.582Z,16.70
2022-12-14T11:15:48.584Z,17.10
2022-12-14T11:18:29.516Z,17.23
2022-12-14T11:20:59.861Z,18.63
2022-12-14T11:23:29.667Z,18.33
2022-12-14T11:25:59.940Z,18.30
2022-12-14T11:28:37.030Z,18.70
2022-12-14T11:31:08.295Z,18.10
2022-12-14T11:33:40.011Z,16.50
2022-12-14T11:36:09.126Z,17.00
2022-12-14T11:38:38.217Z,17.47
2022-12-14T11:41:11.355Z,18.60
2022-12-14T11:43:41.894Z,18.30
2022-12-14T11:46:10.511Z,18.50
2022-12-14T11:48:39.376Z,20.07
2022-12-14T11:51:12.191Z,18.30
2022-12-14T11:53:41.275Z,16.60
2022-12-14T11:56:14.477Z,17.93
2022-12-14T11:58:51.897Z,16.37
2022-12-14T12:01:25.464Z,17.27
2022-12-14T12:03:56.944Z,17.30
2022-12-14T12:06:27.279Z,19.87
2022-12-14T12:08:59.538Z,19.00
2022-12-14T12:11:30.824Z,18.97
2022-12-14T12:14:02.900Z,18.63
2022-12-14T12:16:33.057Z,17.57
2022-12-14T12:19:11.744Z,17.03
2022-12-14T12:21:43.219Z,17.80
2022-12-14T12:24:18.243Z,17.90
2022-12-14T12:26:50.982Z,18.30
2022-12-14T12:29:25.951Z,21.40
2022-12-14T12:31:58.828Z,18.57
2022-12-14T12:34:30.480Z,19.10
2022-12-14T12:37:25.721Z,21.53
2022-12-14T12:39:51.914Z,16.60
2022-12-14T12:42:26.013Z,17.27
2022-12-14T12:44:59.641Z,17.13
2022-12-14T12:47:41.435Z,19.70
2022-12-14T12:50:16.826Z,22.50
2022-12-14T12:52:55.400Z,21.03
2022-12-14T12:55:27.762Z,13.65
2022-12-14T12:57:59.008Z,12.70
2022-12-14T13:00:30.605Z,17.40
2022-12-14T13:03:09.059Z,18.17
2022-12-14T13:05:49.039Z,18.50
2022-12-14T13:08:25.222Z,18.90
2022-12-14T13:11:24.431Z,16.47
2022-12-14T13:13:48.623Z,17.90
2022-12-14T13:16:26.958Z,17.47
2022-12-14T13:21:51.795Z,19.00
2022-12-14T13:24:22.282Z,18.90
2022-12-14T13:27:26.618Z,20.80
2022-12-14T13:30:10.394Z,17.97
2022-12-14T13:32:48.427Z,20.73
2022-12-14T13:35:30.245Z,21.00
2022-12-14T13:38:33.407Z,20.87
2022-12-14T13:41:29.036Z,20.17
2022-12-14T13:44:19.234Z,19.37
2022-12-14T13:46:50.876Z,20.37
2022-12-14T13:49:22.443Z,20.97
2022-12-14T13:51:52.965Z,21.43
2022-12-14T13:54:27.674Z,19.57
2022-12-14T13:57:06.675Z,21.27
2022-12-14T13:59:37.843Z,23.13
2022-12-14T14:02:08.254Z,19.53
2022-12-14T14:04:38.210Z,21.53
2022-12-14T14:07:44.368Z,20.43
2022-12-14T14:10:30.433Z,19.60
2022-12-14T14:12:59.343Z,21.17
2022-12-14T14:16:26.740Z,22.17
2022-12-14T14:18:51.861Z,24.83
2022-12-14T14:21:58.985Z,20.70
2022-12-14T14:24:30.094Z,20.43
2022-12-14T14:27:10.998Z,25.03
2022-12-14T14:29:46.084Z,25.33
2022-12-14T14:32:34.006Z,26.80
2022-12-14T14:35:03.299Z,23.13
2022-12-14T14:37:37.020Z,21.40
2022-12-14T14:40:43.759Z,21.70
2022-12-14T14:43:23.581Z,21.83
2022-12-14T14:45:54.451Z,22.60
2022-12-14T14:48:28.186Z,22.57
2022-12-14T14:51:10.520Z,23.43
2022-12-14T14:53:40.999Z,22.83
2022-12-14T14:56:29.366Z,23.93
2022-12-14T14:59:30.149Z,25.17
2022-12-14T15:02:00.969Z,29.93
2022-12-14T15:04:36.551Z,47.10
2022-12-14T15:07:08.742Z,41.10
2022-12-14T15:09:44.619Z,31.53
2022-12-14T15:12:23.420Z,26.43
2022-12-14T15:14:54.388Z,24.43
2022-12-14T15:17:25.402Z,26.00
2022-12-14T15:19:54.692Z,25.43
2022-12-14T15:22:24.725Z,25.10
2022-12-14T15:24:58.031Z,30.60
2022-12-14T15:27:28.892Z,51.73
2022-12-14T15:30:02.431Z,57.23
2022-12-14T15:32:31.902Z,38.47
2022-12-14T15:35:02.394Z,36.77
2022-12-14T15:37:38.067Z,36.80
2022-12-14T15:40:13.390Z,51.17
2022-12-14T15:42:47.322Z,47.60
2022-12-14T15:45:18.934Z,51.70
2022-12-14T15:47:49.131Z,36.87
2022-12-14T15:50:28.676Z,53.40
2022-12-14T15:53:00.875Z,34.23
2022-12-14T15:55:36.767Z,55.47
2022-12-14T15:58:10.481Z,41.28
2022-12-14T16:00:42.593Z,33.27
2022-12-14T16:03:20.030Z,34.20
2022-12-14T16:05:48.756Z,31.00
2022-12-14T16:08:17.719Z,31.60
2022-12-14T16:10:50.678Z,28.87
2022-12-14T16:13:23.065Z,26.27
2022-12-14T16:15:52.187Z,28.77
2022-12-14T16:18:21.458Z,29.67
2022-12-14T16:20:58.701Z,26.77
2022-12-14T16:23:31.173Z,25.43
2022-12-14T16:26:03.210Z,24.50
2022-12-14T16:28:33.605Z,23.27
2022-12-14T16:31:03.747Z,27.00
2022-12-14T16:33:34.717Z,24.40
2022-12-14T16:36:06.340Z,24.70
2022-12-14T16:38:39.188Z,39.20
2022-12-14T16:41:09.425Z,51.93
2022-12-14T16:43:39.926Z,38.50
2022-12-14T16:46:18.701Z,30.93
2022-12-14T16:49:21.768Z,26.37
2022-12-14T16:52:07.254Z,23.10
2022-12-14T16:54:37.792Z,23.20
2022-12-14T16:57:14.987Z,25.07
2022-12-14T16:59:47.946Z,23.83
2022-12-14T17:02:35.802Z,23.87
2022-12-14T17:05:06.997Z,25.17
2022-12-14T17:07:37.587Z,24.03
2022-12-14T17:10:08.325Z,23.07
2022-12-14T17:12:38.440Z,24.37
2022-12-14T17:15:07.846Z,24.37
2022-12-14T17:17:37.349Z,28.87
2022-12-14T17:20:13.779Z,115.53
2022-12-14T17:22:43.262Z,53.97
2022-12-14T17:25:18.671Z,29.10
2022-12-14T17:27:49.448Z,26.83
2022-12-14T17:30:20.177Z,26.20
2022-12-14T17:32:49.361Z,23.63
2022-12-14T17:35:19.247Z,25.07
2022-12-14T17:37:51.347Z,24.43
2022-12-14T17:40:19.915Z,24.30
2022-12-14T17:42:52.811Z,30.70
2022-12-14T17:45:23.400Z,27.43
2022-12-14T17:47:52.279Z,31.67
2022-12-14T17:50:21.773Z,27.60
2022-12-14T17:52:51.130Z,34.23
2022-12-14T17:55:21.838Z,37.20
2022-12-14T17:57:52.604Z,35.10
2022-12-14T18:00:41.101Z,26.33
2022-12-14T18:03:11.501Z,26.70
2022-12-14T18:05:46.473Z,25.63
2022-12-14T18:08:17.086Z,28.67
2022-12-14T18:10:45.989Z,37.67
2022-12-14T18:13:15.993Z,132.90
2022-12-14T18:15:49.609Z,58.87
2022-12-14T18:18:20.891Z,40.97
2022-12-14T18:20:52.081Z,41.63
2022-12-14T18:23:21.173Z,30.87
2022-12-14T18:25:50.969Z,27.60
2022-12-14T18:28:21.028Z,25.87
2022-12-14T18:30:52.230Z,26.27
2022-12-14T18:33:22.699Z,28.23
2022-12-14T18:35:52.003Z,25.37
2022-12-14T18:38:20.671Z,24.47
2022-12-14T18:40:51.207Z,25.93
2022-12-14T18:43:23.289Z,27.00
2022-12-14T18:45:52.721Z,24.80
2022-12-14T18:48:21.387Z,24.53
2022-12-14T18:50:50.631Z,23.83
2022-12-14T18:53:20.874Z,29.57
2022-12-14T18:55:50.189Z,27.20
2022-12-14T18:58:22.042Z,25.77
2022-12-14T19:00:52.353Z,24.90
2022-12-14T19:03:21.498Z,26.20
2022-12-14T19:05:50.124Z,30.83
2022-12-14T19:08:18.939Z,40.63
2022-12-14T19:10:48.913Z,36.10
2022-12-14T19:13:26.225Z,29.53
2022-12-14T19:15:56.673Z,32.27
2022-12-14T19:18:25.423Z,33.23
2022-12-14T19:20:53.974Z,34.60
2022-12-14T19:23:22.657Z,36.13
2022-12-14T19:25:51.314Z,31.47
2022-12-14T19:28:31.910Z,30.93
2022-12-14T19:31:02.935Z,27.40
2022-12-14T19:33:32.349Z,27.20
2022-12-14T19:36:01.432Z,28.97
2022-12-14T19:38:29.942Z,25.57
2022-12-14T19:41:01.714Z,27.63
2022-12-14T19:43:30.788Z,28.87
2022-12-14T19:46:01.210Z,26.67
2022-12-14T19:48:29.787Z,24.93
2022-12-14T19:50:58.319Z,39.80
2022-12-14T19:53:26.838Z,73.37
2022-12-14T19:55:55.388Z,64.97
2022-12-14T19:58:25.323Z,40.30
2022-12-14T20:00:54.381Z,34.60
2022-12-14T20:03:24.835Z,29.83
2022-12-14T20:05:53.959Z,31.37
2022-12-14T20:08:22.649Z,31.10
2022-12-14T20:10:52.738Z,32.33
2022-12-14T20:13:21.347Z,32.83
2022-12-14T20:15:50.969Z,47.87
2022-12-14T20:18:20.235Z,46.63
2022-12-14T20:20:50.656Z,38.07
2022-12-14T20:23:21.709Z,32.97
2022-12-14T20:25:50.565Z,32.50
2022-12-14T20:28:19.205Z,37.17
2022-12-14T20:30:48.973Z,32.43
2022-12-14T20:33:17.850Z,32.93
2022-12-14T20:35:46.482Z,32.67
2022-12-14T20:38:17.152Z,35.17
2022-12-14T20:40:45.931Z,34.03
2022-12-14T20:43:14.606Z,38.33
2022-12-14T20:45:45.125Z,51.47
2022-12-14T20:48:13.997Z,37.93
2022-12-14T20:50:44.316Z,50.47
2022-12-14T20:53:21.428Z,51.67
2022-12-14T20:55:50.005Z,39.27
2022-12-14T20:58:18.822Z,30.20
2022-12-14T21:00:47.462Z,36.27
2022-12-14T21:03:16.281Z,36.20
2022-12-14T21:05:45.194Z,35.63
2022-12-14T21:08:15.556Z,41.47
2022-12-14T21:10:45.470Z,35.90
2022-12-14T21:13:13.079Z,36.70
2022-12-14T21:15:42.413Z,34.83
2022-12-14T21:18:10.935Z,38.80
2022-12-14T21:20:39.659Z,35.70
2022-12-14T21:23:08.182Z,37.07
2022-12-14T21:25:36.707Z,34.67
2022-12-14T21:28:06.645Z,34.77
2022-12-14T21:30:35.404Z,33.03
2022-12-14T21:33:04.361Z,37.70
2022-12-14T21:35:32.881Z,33.37
2022-12-14T21:38:01.643Z,36.40
2022-12-14T21:40:47.353Z,33.30
2022-12-14T21:43:17.259Z,35.83
2022-12-14T21:45:46.256Z,41.77
2022-12-14T21:48:14.937Z,38.50
2022-12-14T21:50:45.345Z,35.83
2022-12-14T21:53:13.843Z,32.90
2022-12-14T21:55:49.997Z,29.00
2022-12-14T21:58:19.015Z,29.87
2022-12-14T22:00:47.564Z,28.93
2022-12-14T22:03:16.195Z,31.40
2022-12-14T22:05:44.693Z,32.30
2022-12-14T22:08:13.184Z,33.63
2022-12-14T22:10:41.720Z,35.60
2022-12-14T22:13:10.265Z,32.73
2022-12-14T22:15:40.160Z,33.17
2022-12-14T22:18:08.640Z,34.57
2022-12-14T22:20:37.167Z,30.30
2022-12-14T22:23:05.821Z,33.07
2022-12-14T22:25:34.409Z,32.27
2022-12-14T22:28:02.926Z,32.07
2022-12-14T22:30:32.125Z,38.43
2022-12-14T22:33:02.052Z,30.30
2022-12-14T22:35:30.571Z,17.47
2022-12-14T22:38:32.459Z,21.13
2022-12-14T22:49:41.984Z,23.73
2022-12-14T22:52:11.588Z,22.90
2022-12-14T22:54:41.123Z,23.30
2022-12-14T22:57:11.555Z,23.43
2022-12-14T22:59:43.793Z,25.70
2022-12-14T23:02:12.718Z,26.03
2022-12-14T23:04:42.881Z,27.33
2022-12-14T23:07:11.721Z,28.23
2022-12-14T23:09:57.894Z,27.23
2022-12-14T23:12:43.919Z,26.53
2022-12-14T23:15:29.698Z,26.00
2022-12-14T23:18:19.524Z,28.20
2022-12-14T23:21:06.955Z,25.63
2022-12-14T23:23:55.695Z,24.47
2022-12-14T23:26:41.553Z,26.30
2022-12-14T23:29:27.261Z,28.17
2022-12-14T23:32:13.667Z,26.90
2022-12-14T23:34:59.812Z,26.23
2022-12-14T23:37:47.244Z,23.80
2022-12-14T23:40:33.433Z,23.73
2022-12-14T23:43:26.376Z,25.90
2022-12-14T23:46:12.665Z,26.17
2022-12-14T23:48:58.508Z,26.43
2022-12-14T23:51:44.274Z,25.20
2022-12-14T23:54:32.021Z,23.53
2022-12-14T23:57:17.965Z,24.30
